Ann Arbor, MI

4:14 AM EDT on August 21, 2014 (GMT -0400)
Livingston County | Change Station
CLOSE
Current Station
Airport
Location: Howell,
Elevation: 961 ft
Nearby Weather Stations

Elev 961 ft 42.63 °N, 83.98 °W | Updated 19 minutes ago

Scattered Clouds
Scattered Clouds
63 °F
Feels Like 63 °F
N
0
Wind Variable Wind from North

Today
High -- | Low -- °F
--% Chance of Precip.
Yesterday
High -- | Low -- °F
Precip. -- in
6:48 AM 8:27 PM
Waning Crescent, 16% visible
Pressure 29.97 in
Visibility 10.0 miles
Clouds Scattered Clouds 4400 ft
Dew Point 62 °F
Humidity 96%
Rainfall 0.00 in
Snow Depth Not available.
UV 0 out of 12
Pollen 8.40 out of 12
Ozone Good
PM2.5 Good
Flu Activity Not available.
METAR KOZW 210755Z AUTO 00000KT 10SM SCT044 17/17 A2997 RMK AO2 T01710165

More Conditions Fewer Conditions

Pressure 29.97 in
Visibility 10.0 miles
Clouds Scattered Clouds 4400 ft
Dew Point 62 °F
Humidity 96%
Rainfall 0.00 in
Snow Depth Not available.
UV 0 out of 12
Pollen 8.40 out of 12
Ozone Good
PM2.5 Good
Flu Activity Not available.
METAR KOZW 210755Z AUTO 00000KT 10SM SCT044 17/17 A2997 RMK AO2 T01710165

More Conditions Fewer Conditions

10-Day Weather Forecast

Almanac

Astronomy

Aug. 21, 2014 Rise Set
Actual Time 6:48 AM EDT 8:27 PM EDT
Civil Twilight 6:19 AM EDT 8:56 PM EDT
Nautical Twilight 5:43 AM EDT 9:32 PM EDT
Astronomical Twilight 5:04 AM EDT 10:10 PM EDT
Moon 3:16 AM EDT 5:56 PM EDT
Length of Visible Light 14h 37m
Length of Day
13h 38m
Tomorrow will be 2m 37s shorter.
Waning Crescent, 16% of the Moon is Illuminated
Today
Waning Crescent
Aug 25
New
Sep 2
First Quarter
Sep 8
Full
Sep 15
Last Quarter

Today's Extremes

State Highs State Lows

Community

WunderPhotos

Upload Photos

1,745,867 photos uploaded!

Nearby

Air Quality

  Air Quality AQ Index Pollutant
Yesterday Good
OZONE
Yesterday Good
PM2.5
Current Good
PM2.5
Current Good
OZONE
Thursday Moderate
PM2.5
Thursday Good
OZONE

Snow Depth

Station Depth Elevation
No new snow has been reported.

Earthquake Activity

City Distance Mag. Time & Date
No recent earthquake activity has been reported nearby.
Minimum magnitude displayed is 2.5.

Coastal Water Temperatures

Place Temperature
No Stations Reporting

Nearby Weather Stations